Terminal Aerodrome Forecast
Issued by NWS Charleston, WV

Current Version | Previous Version | Text Only | Print | Product List | Glossary Off
Versions: 1 2 3 4 5 6 7 8 9 10 11 12 13 14 15 16 17 18 19 20 21 22 23 24 25 26

000
FTUS41 KRLX 312300
TAFPKB
TAF
KPKB 312336Z 0100/0124 20005KT P6SM BKN025
     FM010400 20004KT P6SM BKN035
     FM010900 21004KT P6SM BKN030
     FM011100 21004KT P6SM BKN020
     FM011500 22006KT P6SM BKN025
     FM012100 21008KT P6SM SCT035=

USA.gov is the U.S. government's official web portal to all federal, state and local government web resources and services.